Time;durP1;ratioP1;P1;durP2;ratioP2;P2;SDS_P1;SDS_P2;PMS_P1;PMS_P2;Temp;Humidity;BMP_temperature;BMP_pressure;BME280_temperature;BME280_humidity;BME280_pressure;Samples;Min_cycle;Max_cycle;Signal;HPM_P1;HPM_P2
2022/11/27 00:00:02;;;;;;;;;11.75;10.25;;;;;9.28;79.10;101901.03;5064755;28;45239;-81
2022/11/27 00:02:27;;;;;;;;;14.00;13.00;;;;;9.23;79.15;101889.38;5072852;28;45048;-81
2022/11/27 00:04:52;;;;;;;;;14.00;11.33;;;;;9.20;78.88;101890.06;5057221;28;58561;-81
2022/11/27 00:07:18;;;;;;;;;9.00;9.00;;;;;9.28;79.08;101896.69;5051824;28;52649;-81
2022/11/27 00:09:43;;;;;;;;;13.25;10.00;;;;;9.29;79.16;101900.22;5051800;28;45408;-81
2022/11/27 00:12:08;;;;;;;;;9.00;8.00;;;;;9.18;78.67;101873.38;5069864;28;62199;-81
2022/11/27 00:14:34;;;;;;;;;9.00;7.75;;;;;9.10;78.88;101858.88;5067316;28;45088;-81
2022/11/27 00:16:59;;;;;;;;;12.00;9.33;;;;;9.12;78.88;101859.91;5034022;28;45126;-81
2022/11/27 00:19:25;;;;;;;;;8.50;8.25;;;;;9.20;78.78;101871.72;5052121;28;45664;-81
2022/11/27 00:21:50;;;;;;;;;9.75;9.00;;;;;9.24;79.06;101878.06;5051886;28;45034;-81
2022/11/27 00:24:15;;;;;;;;;9.00;9.00;;;;;9.11;78.81;101857.16;5051637;28;45044;-81
2022/11/27 00:26:41;;;;;;;;;10.00;9.00;;;;;9.21;78.78;101883.09;5051240;28;45096;-81
2022/11/27 00:29:06;;;;;;;;;11.00;9.00;;;;;9.18;78.96;101868.13;5051482;28;45395;-81
2022/11/27 00:31:33;;;;;;;;;8.25;8.25;;;;;9.22;78.94;101862.25;5053715;28;45128;-81
2022/11/27 00:34:01;;;;;;;;;10.00;9.00;;;;;9.19;78.93;101850.66;5071912;28;45428;-81
2022/11/27 00:36:28;;;;;;;;;10.00;9.50;;;;;9.12;78.74;101841.53;5062741;28;44974;-81
2022/11/27 00:38:54;;;;;;;;;9.75;9.00;;;;;9.08;78.12;101833.41;5051855;28;45995;-81
2022/11/27 00:41:22;;;;;;;;;11.50;8.75;;;;;9.13;78.68;101845.06;5051719;28;44924;-81
2022/11/27 00:43:48;;;;;;;;;9.75;8.00;;;;;9.14;78.89;101849.50;5051758;28;45095;-81
2022/11/27 00:46:15;;;;;;;;;11.00;9.00;;;;;9.14;78.93;101842.53;5051296;28;45402;-81
2022/11/27 00:48:41;;;;;;;;;10.75;8.50;;;;;9.07;78.60;101818.50;5061091;28;46314;-81
2022/11/27 00:51:08;;;;;;;;;13.00;10.50;;;;;9.12;78.69;101831.06;5071708;28;44975;-81
2022/11/27 00:53:34;;;;;;;;;11.25;10.00;;;;;8.94;78.65;101809.00;5072329;28;45125;-81
2022/11/27 00:56:00;;;;;;;;;8.00;8.00;;;;;9.07;78.40;101834.22;5072173;28;45211;-81
2022/11/27 00:58:26;;;;;;;;;10.50;9.50;;;;;9.00;78.78;101827.69;5071187;28;45789;-81
2022/11/27 01:00:55;;;;;;;;;10.75;9.00;;;;;9.05;78.34;101836.75;5071488;28;44949;-81
2022/11/27 01:03:21;;;;;;;;;9.00;8.50;;;;;8.79;78.73;101782.78;5071616;28;45088;-81
2022/11/27 01:05:46;;;;;;;;;9.50;7.25;;;;;8.95;78.60;101814.31;5071588;28;45011;-81
2022/11/27 01:08:12;;;;;;;;;5.75;5.75;;;;;8.95;78.70;101809.06;5071496;28;45026;-81
2022/11/27 01:10:37;;;;;;;;;12.00;8.00;;;;;8.96;78.92;101799.50;5070806;28;45151;-81
2022/11/27 01:13:02;;;;;;;;;9.33;7.00;;;;;8.93;77.97;101795.00;5069460;28;60285;-81
2022/11/27 01:15:28;;;;;;;;;9.75;9.25;;;;;9.00;78.59;101810.25;5070959;28;45170;-82
2022/11/27 01:17:53;;;;;;;;;7.00;7.00;;;;;9.03;78.99;101814.78;5070249;28;66377;-81
2022/11/27 01:20:18;;;;;;;;;9.00;8.00;;;;;8.88;78.74;101785.06;5070865;28;59471;-81
2022/11/27 01:22:44;;;;;;;;;9.00;7.50;;;;;9.03;78.55;101822.66;5071616;28;45486;-81
2022/11/27 01:25:09;;;;;;;;;7.00;7.00;;;;;8.96;78.50;101808.25;5061767;28;46025;-81
2022/11/27 01:27:34;;;;;;;;;8.67;6.67;;;;;8.79;78.76;101781.06;5050612;28;60981;-81
2022/11/27 01:29:59;;;;;;;;;8.00;8.00;;;;;8.99;78.72;101808.44;5050611;28;50749;-81
2022/11/27 01:32:25;;;;;;;;;4.67;4.00;;;;;9.00;78.81;101793.63;5050864;28;45519;-81
2022/11/27 01:34:50;;;;;;;;;8.00;7.25;;;;;8.88;78.00;101761.47;5050056;28;58226;-81
2022/11/27 01:37:15;;;;;;;;;8.00;6.25;;;;;8.86;78.50;101776.19;5031790;28;47800;-81
2022/11/27 01:39:41;;;;;;;;;11.25;7.50;;;;;8.79;78.42;101770.59;5051238;28;45054;-81
2022/11/27 01:42:10;;;;;;;;;9.00;8.00;;;;;8.80;78.74;101771.50;5050892;28;45177;-81
2022/11/27 01:44:35;;;;;;;;;7.00;6.50;;;;;8.94;78.62;101795.88;5050806;28;45109;-81
2022/11/27 01:47:05;;;;;;;;;8.00;7.00;;;;;8.93;78.65;101778.34;5050323;28;50791;-81
2022/11/27 01:49:38;;;;;;;;;5.75;4.75;;;;;8.74;78.58;101743.22;5049234;28;45408;-81
2022/11/27 01:52:10;;;;;;;;;9.00;6.75;;;;;8.97;78.64;101782.97;5050218;28;45077;-81
2022/11/27 01:54:50;;;;;;;;;9.00;8.00;;;;;8.96;78.69;101782.03;5052689;28;45016;-80
2022/11/27 01:57:40;;;;;;;;;7.25;7.25;;;;;9.08;78.58;101784.47;5070916;28;45277;-80
2022/11/27 02:00:08;;;;;;;;;12.75;7.75;;;;;9.07;78.91;101771.28;5056905;28;45261;-81
2022/11/27 02:02:33;;;;;;;;;7.25;7.00;;;;;9.16;78.68;101775.34;5048769;28;45157;-81
2022/11/27 02:04:59;;;;;;;;;7.25;6.00;;;;;9.05;78.58;101751.09;5050453;28;44917;-81
2022/11/27 02:07:24;;;;;;;;;7.50;6.75;;;;;9.22;78.42;101766.91;5050207;28;50458;-81
2022/11/27 02:09:50;;;;;;;;;9.50;8.50;;;;;9.15;77.88;101759.50;5050399;28;45059;-81
2022/11/27 02:13:04;;;;;;;;;6.50;6.25;;;;;9.10;78.44;101756.59;5065225;28;45056;-81
2022/11/27 02:15:51;;;;;;;;;8.00;7.50;;;;;9.16;78.21;101766.53;5034230;28;45058;-81
2022/11/27 02:18:26;;;;;;;;;8.50;7.00;;;;;9.09;78.09;101761.78;5070109;28;45085;-81
2022/11/27 02:21:00;;;;;;;;;7.25;6.00;;;;;9.08;78.12;101762.59;5052127;28;45463;-81
2022/11/27 02:23:59;;;;;;;;;7.75;7.00;;;;;9.08;78.33;101768.75;5072326;28;45089;-81
2022/11/27 02:26:45;;;;;;;;;7.00;6.00;;;;;9.08;78.25;101775.72;5074373;28;45199;-81
2022/11/27 02:29:19;;;;;;;;;7.00;6.75;;;;;9.06;78.00;101770.34;5074230;28;45206;-81
2022/11/27 02:32:08;;;;;;;;;8.75;7.50;;;;;9.09;78.21;101772.25;5073908;28;45015;-81
2022/11/27 02:34:47;;;;;;;;;9.00;7.75;;;;;9.10;78.19;101780.22;5073978;28;45143;-81
2022/11/27 02:37:24;;;;;;;;;7.50;7.50;;;;;9.08;78.26;101771.38;5074278;28;44936;-81
2022/11/27 02:40:19;;;;;;;;;8.25;6.50;;;;;9.08;78.24;101765.22;5073626;28;45085;-81
2022/11/27 02:43:07;;;;;;;;;7.75;7.25;;;;;8.82;78.37;101719.16;5073817;28;45185;-81
2022/11/27 02:45:38;;;;;;;;;8.00;6.75;;;;;8.99;78.17;101745.50;5063614;28;45303;-81
2022/11/27 02:48:06;;;;;;;;;6.75;6.75;;;;;9.01;78.24;101746.53;5052189;28;45236;-81
2022/11/27 02:50:35;;;;;;;;;5.00;4.00;;;;;9.08;78.63;101755.63;5053284;28;45136;-81
2022/11/27 02:53:05;;;;;;;;;6.75;6.75;;;;;8.95;78.30;101724.28;5052986;28;45388;-81
2022/11/27 02:55:35;;;;;;;;;7.25;4.25;;;;;9.15;78.47;101754.25;5052151;28;45118;-81
2022/11/27 02:58:07;;;;;;;;;11.50;7.00;;;;;9.18;78.15;101746.56;5052733;28;45148;-80
2022/11/27 03:00:34;;;;;;;;;5.75;4.00;;;;;9.17;78.19;101732.56;5052353;28;45210;-80
2022/11/27 03:03:04;;;;;;;;;7.25;7.00;;;;;9.18;78.40;101736.06;5052939;28;45251;-80
2022/11/27 03:05:37;;;;;;;;;8.00;6.00;;;;;9.14;78.28;101724.50;5053452;28;45127;-80
2022/11/27 03:08:28;;;;;;;;;6.25;6.00;;;;;9.15;77.96;101731.53;5034788;28;45233;-80
2022/11/27 03:11:01;;;;;;;;;6.25;4.25;;;;;9.07;77.99;101726.72;5053038;28;45081;-80
2022/11/27 03:13:27;;;;;;;;;9.00;8.00;;;;;9.02;78.09;101722.09;5052176;28;45411;-80
2022/11/27 03:16:16;;;;;;;;;6.75;6.25;;;;;9.00;78.20;101722.81;5052750;28;44984;-80
2022/11/27 03:19:17;;;;;;;;;8.00;6.25;;;;;9.05;78.38;101727.50;5039088;28;44954;-80
2022/11/27 03:21:55;;;;;;;;;6.25;5.75;;;;;9.00;78.24;101718.47;5048355;28;47588;-81
2022/11/27 03:24:21;;;;;;;;;6.50;6.50;;;;;8.95;78.21;101701.59;5052063;28;45357;-80
2022/11/27 03:26:47;;;;;;;;;6.75;5.75;;;;;9.05;78.20;101705.63;5052931;28;44970;-79
2022/11/27 03:29:36;;;;;;;;;7.00;6.75;;;;;9.10;78.61;101711.13;5052788;28;45142;-79
2022/11/27 03:32:02;;;;;;;;;8.50;7.75;;;;;9.13;78.30;101704.34;5052073;28;45342;-80
2022/11/27 03:34:28;;;;;;;;;7.50;6.00;;;;;8.96;78.17;101663.16;5049676;28;45063;-80
2022/11/27 03:36:53;;;;;;;;;7.75;7.00;;;;;9.02;78.26;101664.41;5053014;28;45102;-80
2022/11/27 03:39:20;;;;;;;;;6.00;6.00;;;;;9.09;78.41;101677.84;5052455;28;45179;-80
2022/11/27 03:42:17;;;;;;;;;6.25;6.25;;;;;9.16;78.33;101677.38;5052644;28;45816;-80
2022/11/27 03:45:20;;;;;;;;;8.00;7.00;;;;;9.18;78.31;101681.00;5052624;28;45415;-80
2022/11/27 03:47:45;;;;;;;;;8.00;6.00;;;;;9.18;78.09;101679.28;5057616;28;45176;-80
2022/11/27 03:50:20;;;;;;;;;8.00;8.00;;;;;9.09;78.25;101665.66;5062111;28;45074;-80
2022/11/27 03:52:58;;;;;;;;;7.25;7.00;;;;;9.01;78.05;101649.50;5051725;28;45175;-80
2022/11/27 03:55:45;;;;;;;;;7.00;6.00;;;;;9.13;78.03;101674.59;5052083;28;48354;-80
2022/11/27 03:58:31;;;;;;;;;9.00;7.00;;;;;8.98;78.05;101651.94;5052395;28;44957;-80
2022/11/27 04:00:59;;;;;;;;;7.00;5.75;;;;;9.01;78.30;101656.44;5051520;28;45014;-80
2022/11/27 04:03:28;;;;;;;;;7.00;7.00;;;;;9.09;78.35;101667.38;5058924;28;45292;-80
2022/11/27 04:05:54;;;;;;;;;6.00;6.00;;;;;9.11;78.21;101661.38;5072484;28;45626;-79
2022/11/27 04:08:19;;;;;;;;;7.00;6.25;;;;;8.97;77.98;101654.50;5058362;28;45102;-80
2022/11/27 04:10:45;;;;;;;;;7.00;6.00;;;;;8.95;78.07;101649.16;5052316;28;44979;-79
2022/11/27 04:13:11;;;;;;;;;7.00;6.50;;;;;9.04;78.23;101667.13;5051934;28;45737;-80
2022/11/27 04:15:36;;;;;;;;;4.00;4.00;;;;;8.98;78.58;101645.81;5052426;28;44951;-80
2022/11/27 04:18:01;;;;;;;;;8.25;7.00;;;;;9.11;78.38;101657.84;5051735;28;44950;-80
2022/11/27 04:20:28;;;;;;;;;7.67;6.00;;;;;9.12;78.64;101660.59;5065295;28;57893;-80
2022/11/27 04:22:54;;;;;;;;;8.50;8.00;;;;;9.14;78.57;101661.56;5072083;28;45510;-80
2022/11/27 04:25:20;;;;;;;;;4.25;4.00;;;;;9.15;78.53;101658.09;5071664;28;45413;-80
2022/11/27 04:27:46;;;;;;;;;8.00;7.00;;;;;9.04;78.44;101630.41;5072090;28;44996;-80
2022/11/27 04:30:12;;;;;;;;;3.75;2.75;;;;;9.15;78.47;101642.38;5071683;28;45052;-81
2022/11/27 04:32:37;;;;;;;;;6.25;4.00;;;;;9.16;78.49;101635.41;5071936;28;46328;-80
2022/11/27 04:35:03;;;;;;;;;10.00;8.33;;;;;9.18;78.62;101637.31;5071628;28;44954;-80
2022/11/27 04:37:28;;;;;;;;;7.75;7.00;;;;;9.06;78.61;101607.78;5050216;28;45499;-80
2022/11/27 04:39:54;;;;;;;;;7.00;7.00;;;;;9.18;78.39;101632.06;5071625;28;49264;-80
2022/11/27 04:42:19;;;;;;;;;8.67;7.33;;;;;9.17;78.50;101638.13;5071219;28;65560;-80
2022/11/27 04:44:44;;;;;;;;;8.00;7.00;;;;;9.19;78.67;101625.09;5071657;28;45174;-80
2022/11/27 04:47:10;;;;;;;;;7.33;6.00;;;;;9.09;78.78;101597.47;5052857;28;45005;-80
2022/11/27 04:49:38;;;;;;;;;7.33;6.67;;;;;9.23;78.45;101613.94;5071902;28;56621;-80
2022/11/27 04:52:03;;;;;;;;;12.00;8.75;;;;;9.05;78.44;101595.50;5071542;28;46533;-80
2022/11/27 04:54:28;;;;;;;;;7.25;7.25;;;;;8.95;78.29;101580.97;5071796;28;44947;-80
2022/11/27 04:56:54;;;;;;;;;7.00;7.00;;;;;9.13;78.39;101616.91;5057897;28;59525;-80
2022/11/27 04:59:20;;;;;;;;;6.67;6.00;;;;;9.01;78.33;101586.59;5051274;28;45089;-80
2022/11/27 05:01:45;;;;;;;;;7.50;7.25;;;;;9.13;78.68;101602.06;5050916;28;45622;-80
2022/11/27 05:04:11;;;;;;;;;7.33;5.33;;;;;9.14;78.88;101606.47;5050531;28;61826;-80
2022/11/27 05:06:36;;;;;;;;;7.00;7.00;;;;;9.13;78.49;101606.41;5051441;28;45152;-80
2022/11/27 05:09:01;;;;;;;;;7.00;6.67;;;;;9.06;78.82;101584.19;5050949;28;55294;-80
2022/11/27 05:11:30;;;;;;;;;8.33;7.00;;;;;9.02;78.82;101574.38;5050899;28;51371;-80
2022/11/27 05:14:15;;;;;;;;;7.75;6.00;;;;;9.13;78.48;101588.94;5051166;28;45406;-80
2022/11/27 05:16:48;;;;;;;;;7.75;6.00;;;;;9.09;78.53;101580.84;5051086;28;45181;-80
2022/11/27 05:19:15;;;;;;;;;7.00;6.00;;;;;9.14;78.54;101588.13;5050862;28;44988;-80
2022/11/27 05:21:41;;;;;;;;;7.00;7.00;;;;;9.09;78.71;101571.25;5051148;28;45723;-80
2022/11/27 05:24:07;;;;;;;;;8.75;7.50;;;;;9.14;78.55;101584.59;5050971;28;45045;-80
2022/11/27 05:26:33;;;;;;;;;4.50;4.50;;;;;9.14;78.65;101588.13;5033175;28;45049;-80
2022/11/27 05:28:58;;;;;;;;;6.25;6.25;;;;;9.14;78.69;101590.75;5051587;28;45223;-79
2022/11/27 05:31:24;;;;;;;;;7.50;6.75;;;;;9.02;78.67;101566.50;5049095;28;45723;-79
2022/11/27 05:33:49;;;;;;;;;6.25;4.75;;;;;9.15;78.65;101586.41;5050264;28;45088;-79
2022/11/27 05:36:14;;;;;;;;;10.25;7.25;;;;;8.96;78.66;101558.28;5049855;28;45210;-79
2022/11/27 05:38:40;;;;;;;;;10.25;7.75;;;;;9.09;78.75;101570.34;5063015;28;44921;-80
2022/11/27 05:41:05;;;;;;;;;6.00;6.00;;;;;9.04;78.67;101568.38;5053513;28;45082;-79
2022/11/27 05:43:31;;;;;;;;;7.67;6.67;;;;;8.94;78.75;101552.06;5068055;28;64594;-79
2022/11/27 05:45:56;;;;;;;;;8.67;6.00;;;;;9.07;78.58;101565.03;5044733;28;50976;-79
2022/11/27 05:48:21;;;;;;;;;9.25;8.75;;;;;9.10;78.85;101565.16;5050695;28;45013;-79
2022/11/27 05:50:50;;;;;;;;;9.00;8.00;;;;;9.01;78.82;101548.94;5044239;28;59630;-79
2022/11/27 05:53:15;;;;;;;;;7.75;7.75;;;;;9.03;78.68;101544.69;5030277;28;45423;-79
2022/11/27 05:55:40;;;;;;;;;7.00;6.33;;;;;9.12;78.63;101562.66;5059258;28;59129;-79
2022/11/27 05:58:06;;;;;;;;;8.00;7.00;;;;;9.18;78.80;101568.22;5030881;28;64588;-80
2022/11/27 06:00:31;;;;;;;;;7.50;6.75;;;;;9.12;78.79;101567.91;5033000;28;45187;-79
2022/11/27 06:02:57;;;;;;;;;6.00;4.00;;;;;9.05;78.80;101553.53;5033415;28;52172;-79
2022/11/27 06:05:22;;;;;;;;;6.00;4.67;;;;;9.18;78.85;101573.47;5016172;28;45241;-80
2022/11/27 06:07:47;;;;;;;;;11.00;8.67;;;;;9.19;78.98;101570.91;5033782;28;50020;-79
2022/11/27 06:10:13;;;;;;;;;9.67;9.00;;;;;9.14;78.93;101559.28;5032860;28;51521;-79
2022/11/27 06:12:38;;;;;;;;;7.00;7.00;;;;;9.07;78.71;101551.91;5015337;28;61210;-79
2022/11/27 06:15:04;;;;;;;;;7.00;7.00;;;;;9.09;78.94;101552.00;5033290;28;45587;-79
2022/11/27 06:17:29;;;;;;;;;9.25;8.00;;;;;9.18;78.90;101570.84;5033322;28;45148;-79
2022/11/27 06:19:54;;;;;;;;;9.75;9.00;;;;;9.20;79.06;101567.47;5033738;28;45627;-79
2022/11/27 06:22:20;;;;;;;;;9.00;7.00;;;;;9.19;78.90;101560.41;5033636;28;44991;-82
2022/11/27 06:24:45;;;;;;;;;9.00;8.00;;;;;9.03;78.86;101540.34;5033225;28;49469;-83
2022/11/27 06:27:10;;;;;;;;;9.75;9.00;;;;;9.07;78.75;101545.78;5033497;28;45061;-81
2022/11/27 06:29:36;;;;;;;;;8.00;6.75;;;;;9.10;78.86;101545.91;5013756;28;45907;-79
2022/11/27 06:32:03;;;;;;;;;7.00;7.00;;;;;9.15;78.95;101554.94;5022820;28;45111;-82
2022/11/27 06:34:28;;;;;;;;;7.25;7.00;;;;;8.86;79.11;101488.72;5033323;28;45281;-82
2022/11/27 06:36:53;;;;;;;;;8.00;8.00;;;;;9.18;79.00;101535.03;5030290;28;45118;-81
2022/11/27 06:39:18;;;;;;;;;8.00;8.00;;;;;9.21;79.16;101534.25;5052269;28;61610;-82
2022/11/27 06:41:44;;;;;;;;;8.33;8.00;;;;;9.03;78.55;101500.13;5052160;28;62903;-81
2022/11/27 06:44:09;;;;;;;;;12.50;8.25;;;;;9.22;78.88;101536.09;5053067;28;44991;-81
2022/11/27 06:46:35;;;;;;;;;8.25;7.25;;;;;9.07;79.02;101496.84;5072663;28;44852;-81
2022/11/27 06:49:01;;;;;;;;;5.50;4.50;;;;;9.28;78.97;101526.81;5033958;28;45584;-82
2022/11/27 06:51:29;;;;;;;;;9.25;8.00;;;;;9.22;79.10;101509.88;5048690;28;45181;-83
2022/11/27 06:53:54;;;;;;;;;7.50;7.00;;;;;9.35;78.94;101524.50;5064356;28;45018;-81
2022/11/27 06:56:23;;;;;;;;;7.50;6.50;;;;;9.34;78.55;101522.69;5055181;28;45163;-82
2022/11/27 06:58:53;;;;;;;;;7.50;6.50;;;;;9.32;78.86;101529.59;5054956;28;45066;-82
2022/11/27 07:01:20;;;;;;;;;8.00;8.00;;;;;9.33;78.72;101528.78;5052727;28;45115;-81
2022/11/27 07:03:46;;;;;;;;;8.00;7.00;;;;;9.30;78.74;101519.00;5053163;28;45016;-82
2022/11/27 07:06:14;;;;;;;;;10.00;9.75;;;;;9.32;78.59;101514.75;5034899;28;45021;-82
2022/11/27 07:08:42;;;;;;;;;10.00;8.00;;;;;9.28;78.52;101513.69;5052800;28;45478;-82
2022/11/27 07:11:12;;;;;;;;;8.00;8.00;;;;;9.26;78.79;101502.25;5072243;28;45153;-81
2022/11/27 07:13:37;;;;;;;;;9.25;9.00;;;;;9.13;78.89;101486.69;5072867;28;45041;-81
2022/11/27 07:16:05;;;;;;;;;8.25;8.00;;;;;9.30;78.79;101496.31;5073046;28;44930;-82
2022/11/27 07:18:34;;;;;;;;;8.75;8.75;;;;;9.31;78.75;101499.84;5072860;28;46746;-82
2022/11/27 07:20:59;;;;;;;;;10.25;10.00;;;;;9.23;78.72;101474.94;5073045;28;45205;-82
2022/11/27 07:23:25;;;;;;;;;7.00;6.33;;;;;9.29;79.02;101480.50;5072930;28;48699;-79
2022/11/27 07:25:50;;;;;;;;;9.33;7.00;;;;;9.33;78.78;101492.06;5072881;28;44938;-82
2022/11/27 07:28:15;;;;;;;;;8.00;7.00;;;;;9.32;78.92;101495.50;5072491;28;63392;-81
2022/11/27 07:30:40;;;;;;;;;7.67;6.33;;;;;9.21;78.85;101466.06;5072463;28;54076;-82
2022/11/27 07:33:06;;;;;;;;;8.00;7.00;;;;;9.26;78.96;101473.38;5072387;28;52177;-81
2022/11/27 07:35:31;;;;;;;;;8.67;7.00;;;;;9.30;78.96;101471.78;5072193;28;46192;-81
2022/11/27 07:37:56;;;;;;;;;8.00;8.00;;;;;9.07;78.58;101439.16;5071518;28;65822;-81
2022/11/27 07:40:22;;;;;;;;;5.25;3.25;;;;;9.32;78.95;101480.66;5072127;28;45136;-81
2022/11/27 07:42:47;;;;;;;;;10.00;8.75;;;;;9.00;79.14;101421.28;5073009;28;44973;-81
2022/11/27 07:45:12;;;;;;;;;9.00;8.00;;;;;9.40;79.10;101495.06;5072560;28;45163;-81
2022/11/27 07:47:38;;;;;;;;;10.00;9.00;;;;;9.25;78.99;101479.44;5052586;28;49024;-82
2022/11/27 07:50:07;;;;;;;;;10.75;9.25;;;;;9.39;79.23;101508.09;5033835;28;44977;-81
2022/11/27 07:52:34;;;;;;;;;9.50;8.00;;;;;9.20;79.29;101475.66;5051420;28;46315;-81
2022/11/27 07:54:59;;;;;;;;;10.75;9.75;;;;;9.39;79.46;101492.38;5051702;28;44945;-81
2022/11/27 07:57:26;;;;;;;;;13.75;12.25;;;;;9.47;79.38;101502.44;5051425;28;45553;-81
2022/11/27 07:59:51;;;;;;;;;11.75;11.00;;;;;9.48;79.79;101493.72;5063849;28;45484;-81
2022/11/27 08:02:16;;;;;;;;;9.00;8.75;;;;;9.53;79.56;101499.22;5060600;28;45244;-81
2022/11/27 08:04:41;;;;;;;;;10.00;9.00;;;;;9.51;79.40;101485.13;5051460;28;45143;-81
2022/11/27 08:07:10;;;;;;;;;11.33;9.67;;;;;9.62;79.46;101515.44;5064520;28;53475;-81
2022/11/27 08:09:36;;;;;;;;;12.75;9.00;;;;;9.63;78.98;101500.59;5070027;28;45262;-81
2022/11/27 08:12:02;;;;;;;;;10.00;9.00;;;;;9.60;79.08;101493.44;5052382;28;45032;-81
2022/11/27 08:14:27;;;;;;;;;9.00;8.00;;;;;9.57;79.08;101490.69;5048851;28;45462;-81
2022/11/27 08:16:53;;;;;;;;;9.50;8.00;;;;;9.47;79.46;101462.19;5033440;28;45465;-81
2022/11/27 08:19:18;;;;;;;;;8.50;7.25;;;;;9.43;79.46;101457.59;5033214;28;45732;-80
2022/11/27 08:21:44;;;;;;;;;13.33;10.00;;;;;9.41;79.49;101452.28;5029894;28;56173;-81
2022/11/27 08:24:09;;;;;;;;;9.00;9.00;;;;;9.45;79.56;101458.56;5032936;28;58857;-80
2022/11/27 08:26:34;;;;;;;;;11.33;10.00;;;;;9.48;79.59;101470.13;5033671;28;45401;-81
2022/11/27 08:29:00;;;;;;;;;11.50;9.75;;;;;9.38;79.45;101448.59;5034043;28;45592;-81
2022/11/27 08:31:26;;;;;;;;;10.50;10.00;;;;;9.38;79.66;101444.25;5049957;28;45128;-81
2022/11/27 08:33:51;;;;;;;;;8.50;7.25;;;;;9.56;79.89;101479.28;5049796;28;45134;-81
2022/11/27 08:36:16;;;;;;;;;11.25;10.00;;;;;9.57;79.61;101467.97;5051633;28;45567;-80
2022/11/27 08:38:42;;;;;;;;;9.50;9.25;;;;;9.01;79.64;101374.22;5046956;28;45505;-81
2022/11/27 08:41:07;;;;;;;;;11.33;10.00;;;;;9.05;79.54;101362.13;5048482;28;45200;-81
2022/11/27 08:43:34;;;;;;;;;9.75;8.00;;;;;9.52;79.54;101434.44;5041118;28;45518;-82
2022/11/27 08:46:03;;;;;;;;;13.75;12.75;;;;;9.38;79.66;101407.50;5032693;28;46264;-81
2022/11/27 08:48:29;;;;;;;;;13.50;13.50;;;;;9.16;79.67;101370.53;5036949;28;45451;-81
2022/11/27 08:50:54;;;;;;;;;13.50;10.75;;;;;9.70;79.74;101453.69;5051532;28;44836;-81
2022/11/27 08:53:19;;;;;;;;;13.00;10.25;;;;;9.67;79.80;101432.56;5050646;28;45114;-81
2022/11/27 08:55:45;;;;;;;;;13.50;12.00;;;;;9.85;80.12;101435.19;5050393;28;45128;-81
2022/11/27 08:58:11;;;;;;;;;17.50;16.00;;;;;9.34;79.75;101345.22;5051543;28;45335;-81
2022/11/27 09:00:37;;;;;;;;;42.50;32.50;;;;;9.87;79.24;101436.16;5050573;28;45334;-81
2022/11/27 09:03:03;;;;;;;;;17.25;17.25;;;;;9.87;79.16;101437.91;5051182;28;44891;-81
2022/11/27 09:05:29;;;;;;;;;51.00;41.00;;;;;9.80;79.66;101419.22;5051019;28;45570;-81
2022/11/27 09:07:58;;;;;;;;;27.75;25.75;;;;;9.62;79.58;101370.19;5049453;28;45027;-81
2022/11/27 09:10:24;;;;;;;;;16.25;14.50;;;;;9.91;79.79;101405.72;5050586;28;45201;-81
2022/11/27 09:12:51;;;;;;;;;15.00;14.50;;;;;9.94;79.82;101397.97;5050876;28;45080;-81
2022/11/27 09:15:17;;;;;;;;;19.25;17.25;;;;;9.89;79.54;101397.75;5049955;28;46054;-81
2022/11/27 09:17:42;;;;;;;;;14.50;11.75;;;;;9.81;79.54;101370.25;5031526;28;45386;-81
2022/11/27 09:20:09;;;;;;;;;15.75;14.25;;;;;9.81;79.42;101372.88;5051081;28;45239;-81
2022/11/27 09:22:35;;;;;;;;;10.75;9.75;;;;;9.92;79.23;101371.66;5037000;28;45312;-81
2022/11/27 09:25:00;;;;;;;;;15.00;13.75;;;;;10.11;79.42;101394.44;5047882;28;46114;-82
2022/11/27 09:27:26;;;;;;;;;14.50;14.00;;;;;10.17;78.94;101406.94;5049177;28;45306;-81
2022/11/27 09:29:51;;;;;;;;;17.25;14.50;;;;;9.95;79.28;101376.13;5047084;28;45290;-81
2022/11/27 09:32:17;;;;;;;;;13.75;11.75;;;;;10.13;78.97;101405.00;5052655;28;45394;-81
2022/11/27 09:34:42;;;;;;;;;12.67;10.33;;;;;9.99;78.94;101383.31;5049216;28;50173;-81
2022/11/27 09:37:08;;;;;;;;;13.33;12.00;;;;;10.06;78.91;101391.56;5033269;28;45568;-81
2022/11/27 09:39:33;;;;;;;;;18.50;17.00;;;;;10.04;78.72;101387.06;5032932;28;45470;-81
2022/11/27 09:42:02;;;;;;;;;11.50;9.50;;;;;10.02;78.88;101381.75;5033037;28;45380;-81
2022/11/27 09:44:38;;;;;;;;;18.25;16.75;;;;;10.04;79.14;101376.56;5032652;28;45626;-80
2022/11/27 09:47:40;;;;;;;;;18.25;16.50;;;;;10.05;79.31;101358.28;5032764;28;45290;-81
2022/11/27 09:50:11;;;;;;;;;24.00;23.00;;;;;10.07;79.15;101351.34;5032512;28;45452;-81
2022/11/27 09:52:53;;;;;;;;;27.25;21.00;;;;;9.98;78.92;101335.16;5032659;28;45301;-81
2022/11/27 09:55:25;;;;;;;;;15.75;14.50;;;;;10.11;79.08;101348.88;5033496;28;46286;-81
2022/11/27 09:58:16;;;;;;;;;20.50;20.00;;;;;10.10;78.81;101355.88;5036982;28;45445;-81
2022/11/27 10:00:43;;;;;;;;;14.50;13.25;;;;;10.10;79.00;101345.34;5009380;28;45621;-81
2022/11/27 10:03:23;;;;;;;;;16.50;15.50;;;;;10.09;78.07;101356.66;5033105;28;45711;-82
2022/11/27 10:06:27;;;;;;;;;18.00;14.75;;;;;10.11;78.64;101360.28;5032492;28;45305;-81
2022/11/27 10:09:16;;;;;;;;;13.25;12.75;;;;;10.10;78.72;101366.38;5032423;28;45958;-81
2022/11/27 10:12:09;;;;;;;;;12.75;10.25;;;;;10.10;78.09;101355.88;5032607;28;45562;-81
2022/11/27 10:14:48;;;;;;;;;13.00;10.50;;;;;10.09;78.37;101359.28;5032161;28;45495;-81
2022/11/27 10:17:23;;;;;;;;;12.25;10.00;;;;;9.93;77.95;101326.19;5032351;28;45529;-81
2022/11/27 10:19:51;;;;;;;;;14.00;14.00;;;;;10.12;78.26;101354.19;5032243;28;45488;-81
2022/11/27 10:22:27;;;;;;;;;14.00;13.25;;;;;10.16;77.88;101348.25;5014507;28;45316;-81
2022/11/27 10:25:08;;;;;;;;;11.00;11.00;;;;;9.93;78.65;101292.03;5032474;28;45397;-81
2022/11/27 10:27:42;;;;;;;;;17.25;16.50;;;;;10.18;78.71;101306.28;5032098;28;48405;-82
2022/11/27 10:30:19;;;;;;;;;15.00;15.00;;;;;10.33;77.89;101318.41;5031778;28;45503;-81
2022/11/27 10:32:47;;;;;;;;;21.75;20.50;;;;;10.42;77.78;101325.81;5032404;28;45482;-81
2022/11/27 10:35:18;;;;;;;;;17.50;15.50;;;;;10.50;78.19;101328.78;5030843;28;45365;-81
2022/11/27 10:38:10;;;;;;;;;19.75;16.50;;;;;10.45;76.95;101317.19;5032224;28;46637;-82
2022/11/27 10:41:03;;;;;;;;;20.50;16.00;;;;;10.55;77.15;101327.25;5032223;28;45300;-81
2022/11/27 10:43:28;;;;;;;;;15.25;14.75;;;;;10.47;77.77;101297.09;5032332;28;45344;-81
2022/11/27 10:46:01;;;;;;;;;16.00;15.75;;;;;10.48;77.27;101278.78;5035641;28;45379;-81
2022/11/27 10:48:28;;;;;;;;;14.50;12.25;;;;;10.63;76.78;101296.94;5035635;28;46637;-81
2022/11/27 10:50:54;;;;;;;;;11.25;11.25;;;;;10.58;76.79;101280.06;5035764;28;45419;-81
2022/11/27 10:53:30;;;;;;;;;15.00;14.25;;;;;10.57;76.91;101279.16;5035773;28;45281;-82
2022/11/27 10:56:07;;;;;;;;;10.75;10.00;;;;;10.77;76.70;101314.19;5035449;28;45640;-81
2022/11/27 10:58:41;;;;;;;;;11.25;11.25;;;;;10.75;77.13;101292.22;5035505;28;45352;-81
2022/11/27 11:01:10;;;;;;;;;11.00;10.25;;;;;10.88;76.88;101301.50;5035133;28;45441;-82
2022/11/27 11:03:36;;;;;;;;;11.25;11.00;;;;;10.83;76.62;101289.88;5033963;28;45435;-81
2022/11/27 11:06:06;;;;;;;;;14.75;12.00;;;;;10.90;76.70;101275.28;5035218;28;45486;-82
2022/11/27 11:08:35;;;;;;;;;11.50;11.25;;;;;11.08;76.51;101290.09;5034796;28;47106;-81
2022/11/27 11:11:04;;;;;;;;;12.00;11.75;;;;;11.20;76.69;101294.97;5035133;28;45553;-81
2022/11/27 11:13:39;;;;;;;;;19.00;15.75;;;;;11.21;76.14;101280.97;5035225;28;45316;-81
2022/11/27 11:16:14;;;;;;;;;12.00;10.75;;;;;11.26;75.65;101273.25;5035158;28;45330;-81
2022/11/27 11:18:50;;;;;;;;;15.00;12.00;;;;;11.28;75.79;101274.19;5034932;28;46347;-82
2022/11/27 11:21:47;;;;;;;;;12.00;11.25;;;;;11.30;75.39;101265.53;5035066;28;46013;-82
2022/11/27 11:24:26;;;;;;;;;19.50;13.50;;;;;11.20;75.46;101242.34;5034518;28;45551;-82
2022/11/27 11:26:55;;;;;;;;;10.00;9.25;;;;;11.20;74.83;101237.06;5035100;28;45428;-82
2022/11/27 11:29:45;;;;;;;;;12.75;12.25;;;;;11.22;75.24;101253.81;5034592;28;45531;-81
2022/11/27 11:32:15;;;;;;;;;13.25;12.00;;;;;11.08;75.36;101218.16;5034881;28;45300;-81
2022/11/27 11:34:47;;;;;;;;;18.00;15.50;;;;;11.23;75.72;101239.84;5035045;28;45369;-82
2022/11/27 11:37:21;;;;;;;;;12.00;11.25;;;;;11.27;75.87;101233.84;5034904;28;45532;-82